sensor_id;sensor_type;location;lat;lon;timestamp;temperature;humidity
65179;DHT22;51849;47.476;8.084;2022-10-16T00:01:12;12.50;93.40
65179;DHT22;51849;47.476;8.084;2022-10-16T00:03:39;12.50;93.60
65179;DHT22;51849;47.476;8.084;2022-10-16T00:06:06;12.50;93.90
65179;DHT22;51849;47.476;8.084;2022-10-16T00:08:34;12.50;94.00
65179;DHT22;51849;47.476;8.084;2022-10-16T00:11:01;12.50;94.10
65179;DHT22;51849;47.476;8.084;2022-10-16T00:13:38;12.50;94.30
65179;DHT22;51849;47.476;8.084;2022-10-16T00:16:05;12.50;94.50
65179;DHT22;51849;47.476;8.084;2022-10-16T00:18:31;12.50;94.60
65179;DHT22;51849;47.476;8.084;2022-10-16T00:21:04;12.50;94.50
65179;DHT22;51849;47.476;8.084;2022-10-16T00:23:35;12.50;94.60
65179;DHT22;51849;47.476;8.084;2022-10-16T00:26:03;12.50;94.60
65179;DHT22;51849;47.476;8.084;2022-10-16T00:28:31;12.60;94.70
65179;DHT22;51849;47.476;8.084;2022-10-16T00:30:57;12.60;94.90
65179;DHT22;51849;47.476;8.084;2022-10-16T00:33:27;12.60;95.10
65179;DHT22;51849;47.476;8.084;2022-10-16T00:35:53;12.60;95.20
65179;DHT22;51849;47.476;8.084;2022-10-16T00:38:18;12.60;95.40
65179;DHT22;51849;47.476;8.084;2022-10-16T00:40:44;12.60;95.50
65179;DHT22;51849;47.476;8.084;2022-10-16T00:46:05;12.60;95.50
65179;DHT22;51849;47.476;8.084;2022-10-16T00:48:36;12.60;95.60
65179;DHT22;51849;47.476;8.084;2022-10-16T00:51:02;12.60;95.60
65179;DHT22;51849;47.476;8.084;2022-10-16T00:53:29;12.70;95.60
65179;DHT22;51849;47.476;8.084;2022-10-16T00:55:55;12.60;95.40
65179;DHT22;51849;47.476;8.084;2022-10-16T00:58:21;12.70;95.40
65179;DHT22;51849;47.476;8.084;2022-10-16T01:00:47;12.60;95.60
65179;DHT22;51849;47.476;8.084;2022-10-16T01:03:26;12.60;95.80
65179;DHT22;51849;47.476;8.084;2022-10-16T01:09:04;12.60;95.90
65179;DHT22;51849;47.476;8.084;2022-10-16T01:14:36;12.60;95.70
65179;DHT22;51849;47.476;8.084;2022-10-16T01:17:06;12.60;95.70
65179;DHT22;51849;47.476;8.084;2022-10-16T01:19:52;12.70;95.60
65179;DHT22;51849;47.476;8.084;2022-10-16T01:22:30;12.70;95.70
65179;DHT22;51849;47.476;8.084;2022-10-16T01:25:03;12.70;95.90
65179;DHT22;51849;47.476;8.084;2022-10-16T01:27:34;12.70;95.90
65179;DHT22;51849;47.476;8.084;2022-10-16T01:30:23;12.70;95.90
65179;DHT22;51849;47.476;8.084;2022-10-16T01:32:55;12.70;95.80
65179;DHT22;51849;47.476;8.084;2022-10-16T01:35:27;12.70;95.80
65179;DHT22;51849;47.476;8.084;2022-10-16T01:37:59;12.70;95.90
65179;DHT22;51849;47.476;8.084;2022-10-16T01:40:30;12.70;96.00
65179;DHT22;51849;47.476;8.084;2022-10-16T01:43:05;12.70;96.20
65179;DHT22;51849;47.476;8.084;2022-10-16T01:45:35;12.70;96.20
65179;DHT22;51849;47.476;8.084;2022-10-16T01:48:02;12.70;96.30
65179;DHT22;51849;47.476;8.084;2022-10-16T01:50:34;12.80;96.30
65179;DHT22;51849;47.476;8.084;2022-10-16T01:53:05;12.70;96.30
65179;DHT22;51849;47.476;8.084;2022-10-16T01:55:34;12.70;96.30
65179;DHT22;51849;47.476;8.084;2022-10-16T01:58:07;12.70;96.30
65179;DHT22;51849;47.476;8.084;2022-10-16T02:00:34;12.70;96.40
65179;DHT22;51849;47.476;8.084;2022-10-16T02:03:03;12.80;96.50
65179;DHT22;51849;47.476;8.084;2022-10-16T02:05:32;12.80;96.60
65179;DHT22;51849;47.476;8.084;2022-10-16T02:08:02;12.80;96.80
65179;DHT22;51849;47.476;8.084;2022-10-16T02:10:28;12.80;97.00
65179;DHT22;51849;47.476;8.084;2022-10-16T02:12:57;12.70;97.00
65179;DHT22;51849;47.476;8.084;2022-10-16T02:15:26;12.70;97.00
65179;DHT22;51849;47.476;8.084;2022-10-16T02:17:51;12.70;97.10
65179;DHT22;51849;47.476;8.084;2022-10-16T02:20:18;12.70;97.10
65179;DHT22;51849;47.476;8.084;2022-10-16T02:22:48;12.70;96.90
65179;DHT22;51849;47.476;8.084;2022-10-16T02:25:22;12.70;96.70
65179;DHT22;51849;47.476;8.084;2022-10-16T02:27:58;12.60;96.60
65179;DHT22;51849;47.476;8.084;2022-10-16T02:33:06;12.50;96.40
65179;DHT22;51849;47.476;8.084;2022-10-16T02:35:34;12.50;96.50
65179;DHT22;51849;47.476;8.084;2022-10-16T02:38:01;12.50;96.50
65179;DHT22;51849;47.476;8.084;2022-10-16T02:40:27;12.50;96.40
65179;DHT22;51849;47.476;8.084;2022-10-16T02:42:54;12.50;96.30
65179;DHT22;51849;47.476;8.084;2022-10-16T02:45:22;12.50;96.40
65179;DHT22;51849;47.476;8.084;2022-10-16T02:47:49;12.50;96.50
65179;DHT22;51849;47.476;8.084;2022-10-16T02:50:15;12.50;96.60
65179;DHT22;51849;47.476;8.084;2022-10-16T02:52:41;12.50;96.60
65179;DHT22;51849;47.476;8.084;2022-10-16T02:55:06;12.50;96.50
65179;DHT22;51849;47.476;8.084;2022-10-16T02:57:32;12.50;96.50
65179;DHT22;51849;47.476;8.084;2022-10-16T03:00:04;12.50;96.50
65179;DHT22;51849;47.476;8.084;2022-10-16T03:02:30;12.50;96.50
65179;DHT22;51849;47.476;8.084;2022-10-16T03:04:56;12.50;96.50
65179;DHT22;51849;47.476;8.084;2022-10-16T03:07:27;12.50;96.50
65179;DHT22;51849;47.476;8.084;2022-10-16T03:09:52;12.50;96.30
65179;DHT22;51849;47.476;8.084;2022-10-16T03:12:18;12.50;96.40
65179;DHT22;51849;47.476;8.084;2022-10-16T03:14:44;12.50;96.30
65179;DHT22;51849;47.476;8.084;2022-10-16T03:17:09;12.50;96.40
65179;DHT22;51849;47.476;8.084;2022-10-16T03:19:35;12.50;96.30
65179;DHT22;51849;47.476;8.084;2022-10-16T03:22:03;12.50;96.30
65179;DHT22;51849;47.476;8.084;2022-10-16T03:24:29;12.50;96.30
65179;DHT22;51849;47.476;8.084;2022-10-16T03:26:54;12.50;96.40
65179;DHT22;51849;47.476;8.084;2022-10-16T03:29:22;12.50;96.60
65179;DHT22;51849;47.476;8.084;2022-10-16T03:31:48;12.50;96.60
65179;DHT22;51849;47.476;8.084;2022-10-16T03:34:14;12.50;96.70
65179;DHT22;51849;47.476;8.084;2022-10-16T03:36:40;12.50;96.60
65179;DHT22;51849;47.476;8.084;2022-10-16T03:39:06;12.50;96.60
65179;DHT22;51849;47.476;8.084;2022-10-16T03:41:32;12.60;96.50
65179;DHT22;51849;47.476;8.084;2022-10-16T03:43:57;12.60;96.70
65179;DHT22;51849;47.476;8.084;2022-10-16T03:46:23;12.50;96.90
65179;DHT22;51849;47.476;8.084;2022-10-16T03:48:49;12.60;97.10
65179;DHT22;51849;47.476;8.084;2022-10-16T03:51:14;12.60;97.00
65179;DHT22;51849;47.476;8.084;2022-10-16T03:53:40;12.60;97.10
65179;DHT22;51849;47.476;8.084;2022-10-16T03:56:06;12.60;97.00
65179;DHT22;51849;47.476;8.084;2022-10-16T03:58:34;12.60;96.90
65179;DHT22;51849;47.476;8.084;2022-10-16T04:01:00;12.60;96.80
65179;DHT22;51849;47.476;8.084;2022-10-16T04:03:26;12.60;96.90
65179;DHT22;51849;47.476;8.084;2022-10-16T04:05:52;12.60;96.80
65179;DHT22;51849;47.476;8.084;2022-10-16T04:08:17;12.60;96.60
65179;DHT22;51849;47.476;8.084;2022-10-16T04:10:43;12.60;96.30
65179;DHT22;51849;47.476;8.084;2022-10-16T04:13:09;12.60;96.40
65179;DHT22;51849;47.476;8.084;2022-10-16T04:15:35;12.60;96.40
65179;DHT22;51849;47.476;8.084;2022-10-16T04:18:01;12.50;96.70
65179;DHT22;51849;47.476;8.084;2022-10-16T04:20:26;12.50;96.80
65179;DHT22;51849;47.476;8.084;2022-10-16T04:22:52;12.60;97.00
65179;DHT22;51849;47.476;8.084;2022-10-16T04:25:18;12.50;97.00
65179;DHT22;51849;47.476;8.084;2022-10-16T04:27:44;12.60;96.90
65179;DHT22;51849;47.476;8.084;2022-10-16T04:30:09;12.60;96.70
65179;DHT22;51849;47.476;8.084;2022-10-16T04:32:35;12.60;96.30
65179;DHT22;51849;47.476;8.084;2022-10-16T04:35:01;12.50;96.30
65179;DHT22;51849;47.476;8.084;2022-10-16T04:37:28;12.50;96.40
65179;DHT22;51849;47.476;8.084;2022-10-16T04:39:53;12.50;96.30
65179;DHT22;51849;47.476;8.084;2022-10-16T04:42:19;12.50;96.10
65179;DHT22;51849;47.476;8.084;2022-10-16T04:44:46;12.50;95.80
65179;DHT22;51849;47.476;8.084;2022-10-16T04:47:12;12.50;95.80
65179;DHT22;51849;47.476;8.084;2022-10-16T04:49:38;12.50;96.00
65179;DHT22;51849;47.476;8.084;2022-10-16T04:52:04;12.50;96.10
65179;DHT22;51849;47.476;8.084;2022-10-16T04:54:30;12.50;96.00
65179;DHT22;51849;47.476;8.084;2022-10-16T04:56:55;12.50;96.20
65179;DHT22;51849;47.476;8.084;2022-10-16T04:59:21;12.50;96.20
65179;DHT22;51849;47.476;8.084;2022-10-16T05:01:47;12.50;96.20
65179;DHT22;51849;47.476;8.084;2022-10-16T05:04:14;12.50;96.20
65179;DHT22;51849;47.476;8.084;2022-10-16T05:06:40;12.50;96.40
65179;DHT22;51849;47.476;8.084;2022-10-16T05:09:06;12.50;96.60
65179;DHT22;51849;47.476;8.084;2022-10-16T05:11:33;12.50;96.70
65179;DHT22;51849;47.476;8.084;2022-10-16T05:13:59;12.50;96.80
65179;DHT22;51849;47.476;8.084;2022-10-16T05:16:25;12.50;96.80
65179;DHT22;51849;47.476;8.084;2022-10-16T05:18:51;12.50;96.90
65179;DHT22;51849;47.476;8.084;2022-10-16T05:21:17;12.50;96.90
65179;DHT22;51849;47.476;8.084;2022-10-16T05:23:43;12.50;97.10
65179;DHT22;51849;47.476;8.084;2022-10-16T05:26:09;12.50;97.30
65179;DHT22;51849;47.476;8.084;2022-10-16T05:28:35;12.50;97.10
65179;DHT22;51849;47.476;8.084;2022-10-16T05:31:04;12.50;96.80
65179;DHT22;51849;47.476;8.084;2022-10-16T05:33:31;12.50;96.60
65179;DHT22;51849;47.476;8.084;2022-10-16T05:36:00;12.50;96.60
65179;DHT22;51849;47.476;8.084;2022-10-16T05:38:27;12.60;96.60
65179;DHT22;51849;47.476;8.084;2022-10-16T05:40:53;12.50;96.70
65179;DHT22;51849;47.476;8.084;2022-10-16T05:43:18;12.50;96.80
65179;DHT22;51849;47.476;8.084;2022-10-16T05:45:52;12.50;96.80
65179;DHT22;51849;47.476;8.084;2022-10-16T05:48:20;12.50;96.80
65179;DHT22;51849;47.476;8.084;2022-10-16T05:50:45;12.40;96.90
65179;DHT22;51849;47.476;8.084;2022-10-16T05:53:11;12.40;96.90
65179;DHT22;51849;47.476;8.084;2022-10-16T05:55:36;12.40;97.00
65179;DHT22;51849;47.476;8.084;2022-10-16T05:58:02;12.40;97.10
65179;DHT22;51849;47.476;8.084;2022-10-16T06:00:28;12.40;97.20
65179;DHT22;51849;47.476;8.084;2022-10-16T06:02:53;12.40;97.00
65179;DHT22;51849;47.476;8.084;2022-10-16T06:05:19;12.40;97.10
65179;DHT22;51849;47.476;8.084;2022-10-16T06:07:47;12.40;97.40
65179;DHT22;51849;47.476;8.084;2022-10-16T06:10:13;12.50;97.60
65179;DHT22;51849;47.476;8.084;2022-10-16T06:12:38;12.50;97.70
65179;DHT22;51849;47.476;8.084;2022-10-16T06:15:04;12.60;97.90
65179;DHT22;51849;47.476;8.084;2022-10-16T06:17:30;12.60;97.70
65179;DHT22;51849;47.476;8.084;2022-10-16T06:19:55;12.60;97.50
65179;DHT22;51849;47.476;8.084;2022-10-16T06:22:21;12.70;97.20
65179;DHT22;51849;47.476;8.084;2022-10-16T06:24:47;12.70;97.10
65179;DHT22;51849;47.476;8.084;2022-10-16T06:27:15;12.70;96.90
65179;DHT22;51849;47.476;8.084;2022-10-16T06:29:40;13.20;99.90
65179;DHT22;51849;47.476;8.084;2022-10-16T06:32:08;13.50;99.90
65179;DHT22;51849;47.476;8.084;2022-10-16T06:34:35;13.40;99.90
65179;DHT22;51849;47.476;8.084;2022-10-16T06:37:00;13.30;99.50
65179;DHT22;51849;47.476;8.084;2022-10-16T06:39:26;13.20;97.40
65179;DHT22;51849;47.476;8.084;2022-10-16T06:41:54;13.20;95.90
65179;DHT22;51849;47.476;8.084;2022-10-16T06:44:19;13.30;98.00
65179;DHT22;51849;47.476;8.084;2022-10-16T06:46:45;13.30;97.80
65179;DHT22;51849;47.476;8.084;2022-10-16T06:49:13;13.30;96.30
65179;DHT22;51849;47.476;8.084;2022-10-16T06:51:41;13.20;95.70
65179;DHT22;51849;47.476;8.084;2022-10-16T06:54:07;13.20;95.10
65179;DHT22;51849;47.476;8.084;2022-10-16T06:56:33;13.20;94.50
65179;DHT22;51849;47.476;8.084;2022-10-16T06:59:01;13.30;94.00
65179;DHT22;51849;47.476;8.084;2022-10-16T07:01:28;13.30;93.80
65179;DHT22;51849;47.476;8.084;2022-10-16T07:03:53;13.30;93.90
65179;DHT22;51849;47.476;8.084;2022-10-16T07:06:20;13.30;94.00
65179;DHT22;51849;47.476;8.084;2022-10-16T07:08:47;13.40;93.90
65179;DHT22;51849;47.476;8.084;2022-10-16T07:11:15;13.40;94.00
65179;DHT22;51849;47.476;8.084;2022-10-16T07:13:43;13.40;93.80
65179;DHT22;51849;47.476;8.084;2022-10-16T07:16:12;13.60;93.70
65179;DHT22;51849;47.476;8.084;2022-10-16T07:18:39;13.50;93.80
65179;DHT22;51849;47.476;8.084;2022-10-16T07:21:12;13.60;93.60
65179;DHT22;51849;47.476;8.084;2022-10-16T07:23:39;13.70;93.50
65179;DHT22;51849;47.476;8.084;2022-10-16T07:26:06;13.90;93.80
65179;DHT22;51849;47.476;8.084;2022-10-16T07:28:33;13.90;93.40
65179;DHT22;51849;47.476;8.084;2022-10-16T07:31:03;13.90;93.00
65179;DHT22;51849;47.476;8.084;2022-10-16T07:33:30;13.90;93.00
65179;DHT22;51849;47.476;8.084;2022-10-16T07:35:56;14.00;93.00
65179;DHT22;51849;47.476;8.084;2022-10-16T07:38:22;14.00;92.80
65179;DHT22;51849;47.476;8.084;2022-10-16T07:40:55;14.10;92.90
65179;DHT22;51849;47.476;8.084;2022-10-16T07:43:22;14.10;93.00
65179;DHT22;51849;47.476;8.084;2022-10-16T07:45:48;14.20;92.80
65179;DHT22;51849;47.476;8.084;2022-10-16T07:48:15;14.30;92.60
65179;DHT22;51849;47.476;8.084;2022-10-16T07:50:42;14.40;92.10
65179;DHT22;51849;47.476;8.084;2022-10-16T07:53:10;14.60;90.70
65179;DHT22;51849;47.476;8.084;2022-10-16T07:55:36;14.80;89.60
65179;DHT22;51849;47.476;8.084;2022-10-16T07:58:01;15.00;88.10
65179;DHT22;51849;47.476;8.084;2022-10-16T08:00:27;15.10;86.70
65179;DHT22;51849;47.476;8.084;2022-10-16T08:02:53;15.30;85.70
65179;DHT22;51849;47.476;8.084;2022-10-16T08:05:19;15.30;86.00
65179;DHT22;51849;47.476;8.084;2022-10-16T08:07:48;15.40;85.50
65179;DHT22;51849;47.476;8.084;2022-10-16T08:10:17;15.60;84.60
65179;DHT22;51849;47.476;8.084;2022-10-16T08:12:47;15.50;84.50
65179;DHT22;51849;47.476;8.084;2022-10-16T08:15:15;15.60;85.30
65179;DHT22;51849;47.476;8.084;2022-10-16T08:17:41;15.70;85.10
65179;DHT22;51849;47.476;8.084;2022-10-16T08:20:07;15.70;84.80
65179;DHT22;51849;47.476;8.084;2022-10-16T08:22:33;15.80;85.20
65179;DHT22;51849;47.476;8.084;2022-10-16T08:24:59;16.00;83.80
65179;DHT22;51849;47.476;8.084;2022-10-16T08:27:24;16.10;84.10
65179;DHT22;51849;47.476;8.084;2022-10-16T08:29:52;16.10;82.80
65179;DHT22;51849;47.476;8.084;2022-10-16T08:32:18;16.20;82.60
65179;DHT22;51849;47.476;8.084;2022-10-16T08:34:46;16.30;81.90
65179;DHT22;51849;47.476;8.084;2022-10-16T08:37:12;16.40;81.50
65179;DHT22;51849;47.476;8.084;2022-10-16T08:39:39;16.60;81.30
65179;DHT22;51849;47.476;8.084;2022-10-16T08:42:07;16.60;80.70
65179;DHT22;51849;47.476;8.084;2022-10-16T08:47:58;16.70;79.30
65179;DHT22;51849;47.476;8.084;2022-10-16T08:50:40;16.80;79.90
65179;DHT22;51849;47.476;8.084;2022-10-16T08:53:06;16.90;79.40
65179;DHT22;51849;47.476;8.084;2022-10-16T08:55:41;17.00;79.00
65179;DHT22;51849;47.476;8.084;2022-10-16T08:58:15;17.00;78.90
65179;DHT22;51849;47.476;8.084;2022-10-16T09:00:43;17.10;79.10
65179;DHT22;51849;47.476;8.084;2022-10-16T09:06:26;17.20;78.00
65179;DHT22;51849;47.476;8.084;2022-10-16T09:16:53;17.70;71.90
65179;DHT22;51849;47.476;8.084;2022-10-16T09:19:31;17.90;70.90
65179;DHT22;51849;47.476;8.084;2022-10-16T09:22:13;18.10;69.20
65179;DHT22;51849;47.476;8.084;2022-10-16T09:24:40;18.30;68.60
65179;DHT22;51849;47.476;8.084;2022-10-16T09:27:09;18.50;68.80
65179;DHT22;51849;47.476;8.084;2022-10-16T09:29:40;18.60;68.20
65179;DHT22;51849;47.476;8.084;2022-10-16T09:32:13;18.80;67.90
65179;DHT22;51849;47.476;8.084;2022-10-16T09:34:42;18.80;67.20
65179;DHT22;51849;47.476;8.084;2022-10-16T09:37:13;19.00;66.00
65179;DHT22;51849;47.476;8.084;2022-10-16T09:39:46;19.10;65.40
65179;DHT22;51849;47.476;8.084;2022-10-16T09:42:17;19.20;65.50
65179;DHT22;51849;47.476;8.084;2022-10-16T09:45:03;19.20;65.10
65179;DHT22;51849;47.476;8.084;2022-10-16T09:47:30;19.30;65.10
65179;DHT22;51849;47.476;8.084;2022-10-16T09:50:01;19.40;64.70
65179;DHT22;51849;47.476;8.084;2022-10-16T09:52:32;19.60;63.80
65179;DHT22;51849;47.476;8.084;2022-10-16T09:54:59;19.80;63.20
65179;DHT22;51849;47.476;8.084;2022-10-16T09:57:27;19.80;62.90
65179;DHT22;51849;47.476;8.084;2022-10-16T09:59:54;19.90;60.20
65179;DHT22;51849;47.476;8.084;2022-10-16T10:02:30;20.00;60.60
65179;DHT22;51849;47.476;8.084;2022-10-16T10:04:57;20.10;58.80
65179;DHT22;51849;47.476;8.084;2022-10-16T10:07:26;20.10;58.70
65179;DHT22;51849;47.476;8.084;2022-10-16T10:09:58;20.20;58.30
65179;DHT22;51849;47.476;8.084;2022-10-16T10:12:36;20.20;57.50
65179;DHT22;51849;47.476;8.084;2022-10-16T10:15:06;20.30;57.60
65179;DHT22;51849;47.476;8.084;2022-10-16T10:17:44;20.40;57.20
65179;DHT22;51849;47.476;8.084;2022-10-16T10:20:16;20.40;57.00
65179;DHT22;51849;47.476;8.084;2022-10-16T10:22:58;20.40;57.50
65179;DHT22;51849;47.476;8.084;2022-10-16T10:46:54;19.90;58.40
65179;DHT22;51849;47.476;8.084;2022-10-16T11:00:44;20.30;54.60
65179;DHT22;51849;47.476;8.084;2022-10-16T11:08:45;20.60;55.20
65179;DHT22;51849;47.476;8.084;2022-10-16T11:11:20;20.70;52.30
65179;DHT22;51849;47.476;8.084;2022-10-16T11:14:10;20.60;52.00
65179;DHT22;51849;47.476;8.084;2022-10-16T11:19:35;20.80;53.70
65179;DHT22;51849;47.476;8.084;2022-10-16T11:24:53;20.90;53.10
65179;DHT22;51849;47.476;8.084;2022-10-16T11:27:22;20.90;54.40
65179;DHT22;51849;47.476;8.084;2022-10-16T11:29:59;20.90;54.90
65179;DHT22;51849;47.476;8.084;2022-10-16T11:32:35;21.00;54.90
65179;DHT22;51849;47.476;8.084;2022-10-16T11:35:13;21.00;54.70
65179;DHT22;51849;47.476;8.084;2022-10-16T11:37:44;21.10;55.20
65179;DHT22;51849;47.476;8.084;2022-10-16T11:40:25;21.10;54.30
65179;DHT22;51849;47.476;8.084;2022-10-16T11:43:17;21.00;54.20
65179;DHT22;51849;47.476;8.084;2022-10-16T11:45:45;21.00;55.20
65179;DHT22;51849;47.476;8.084;2022-10-16T11:48:20;21.10;54.10
65179;DHT22;51849;47.476;8.084;2022-10-16T11:53:55;21.30;55.30
65179;DHT22;51849;47.476;8.084;2022-10-16T11:56:25;21.30;55.10
65179;DHT22;51849;47.476;8.084;2022-10-16T12:01:38;21.30;54.80
65179;DHT22;51849;47.476;8.084;2022-10-16T12:07:21;21.40;54.70
65179;DHT22;51849;47.476;8.084;2022-10-16T12:09:57;21.50;54.30
65179;DHT22;51849;47.476;8.084;2022-10-16T12:12:27;21.50;54.30
65179;DHT22;51849;47.476;8.084;2022-10-16T12:15:21;21.60;53.20
65179;DHT22;51849;47.476;8.084;2022-10-16T12:17:54;21.60;52.90
65179;DHT22;51849;47.476;8.084;2022-10-16T12:20:23;21.60;53.80
65179;DHT22;51849;47.476;8.084;2022-10-16T12:23:02;21.70;53.20
65179;DHT22;51849;47.476;8.084;2022-10-16T12:25:34;21.60;52.80
65179;DHT22;51849;47.476;8.084;2022-10-16T12:28:06;21.70;53.20
65179;DHT22;51849;47.476;8.084;2022-10-16T12:30:52;21.70;53.10
65179;DHT22;51849;47.476;8.084;2022-10-16T12:33:20;21.80;52.80
65179;DHT22;51849;47.476;8.084;2022-10-16T12:35:49;21.80;52.90
65179;DHT22;51849;47.476;8.084;2022-10-16T12:38:20;21.90;52.90
65179;DHT22;51849;47.476;8.084;2022-10-16T12:41:01;21.90;53.40
65179;DHT22;51849;47.476;8.084;2022-10-16T12:46:03;22.00;53.70
65179;DHT22;51849;47.476;8.084;2022-10-16T12:48:31;22.10;53.20
65179;DHT22;51849;47.476;8.084;2022-10-16T12:50:56;22.20;52.90
65179;DHT22;51849;47.476;8.084;2022-10-16T12:53:34;22.20;52.70
65179;DHT22;51849;47.476;8.084;2022-10-16T12:56:13;22.30;51.30
65179;DHT22;51849;47.476;8.084;2022-10-16T13:12:48;22.40;51.80
65179;DHT22;51849;47.476;8.084;2022-10-16T13:15:40;22.40;51.80
65179;DHT22;51849;47.476;8.084;2022-10-16T13:23:41;22.40;51.00
65179;DHT22;51849;47.476;8.084;2022-10-16T13:26:11;22.40;50.80
65179;DHT22;51849;47.476;8.084;2022-10-16T13:28:39;22.40;51.20
65179;DHT22;51849;47.476;8.084;2022-10-16T13:31:05;22.40;51.00
65179;DHT22;51849;47.476;8.084;2022-10-16T13:33:42;22.40;51.60
65179;DHT22;51849;47.476;8.084;2022-10-16T13:36:23;22.40;51.00
65179;DHT22;51849;47.476;8.084;2022-10-16T13:41:39;22.30;52.00
65179;DHT22;51849;47.476;8.084;2022-10-16T13:44:11;22.40;52.10
65179;DHT22;51849;47.476;8.084;2022-10-16T13:46:40;22.30;51.90
65179;DHT22;51849;47.476;8.084;2022-10-16T13:49:13;22.30;51.40
65179;DHT22;51849;47.476;8.084;2022-10-16T13:51:40;22.30;52.10
65179;DHT22;51849;47.476;8.084;2022-10-16T13:54:10;22.30;51.90
65179;DHT22;51849;47.476;8.084;2022-10-16T13:56:38;22.30;52.50
65179;DHT22;51849;47.476;8.084;2022-10-16T13:59:06;22.30;52.70
65179;DHT22;51849;47.476;8.084;2022-10-16T14:01:47;22.30;51.80
65179;DHT22;51849;47.476;8.084;2022-10-16T14:04:14;22.30;52.60
65179;DHT22;51849;47.476;8.084;2022-10-16T14:06:41;22.40;52.70
65179;DHT22;51849;47.476;8.084;2022-10-16T14:09:15;22.40;52.50
65179;DHT22;51849;47.476;8.084;2022-10-16T14:11:58;22.30;52.30
65179;DHT22;51849;47.476;8.084;2022-10-16T14:14:42;22.30;52.90
65179;DHT22;51849;47.476;8.084;2022-10-16T14:17:15;22.30;52.80
65179;DHT22;51849;47.476;8.084;2022-10-16T14:19:51;22.30;51.50
65179;DHT22;51849;47.476;8.084;2022-10-16T14:22:22;22.30;52.50
65179;DHT22;51849;47.476;8.084;2022-10-16T14:24:49;22.30;50.90
65179;DHT22;51849;47.476;8.084;2022-10-16T14:27:29;22.30;51.70
65179;DHT22;51849;47.476;8.084;2022-10-16T14:30:15;22.30;50.90
65179;DHT22;51849;47.476;8.084;2022-10-16T14:32:41;22.20;52.20
65179;DHT22;51849;47.476;8.084;2022-10-16T14:37:55;22.20;51.20
65179;DHT22;51849;47.476;8.084;2022-10-16T14:40:26;22.20;50.80
65179;DHT22;51849;47.476;8.084;2022-10-16T14:42:54;22.10;50.50
65179;DHT22;51849;47.476;8.084;2022-10-16T14:45:24;22.10;50.90
65179;DHT22;51849;47.476;8.084;2022-10-16T14:48:35;22.10;52.00
65179;DHT22;51849;47.476;8.084;2022-10-16T14:50:43;22.20;51.30
65179;DHT22;51849;47.476;8.084;2022-10-16T14:53:12;22.10;51.20
65179;DHT22;51849;47.476;8.084;2022-10-16T14:55:38;22.10;51.30
65179;DHT22;51849;47.476;8.084;2022-10-16T14:58:08;22.00;50.90
65179;DHT22;51849;47.476;8.084;2022-10-16T15:00:39;21.90;50.90
65179;DHT22;51849;47.476;8.084;2022-10-16T15:03:04;21.90;51.10
65179;DHT22;51849;47.476;8.084;2022-10-16T15:05:30;21.90;51.40
65179;DHT22;51849;47.476;8.084;2022-10-16T15:07:58;21.80;51.10
65179;DHT22;51849;47.476;8.084;2022-10-16T15:10:24;21.70;51.80
65179;DHT22;51849;47.476;8.084;2022-10-16T15:12:52;21.60;51.70
65179;DHT22;51849;47.476;8.084;2022-10-16T15:15:25;21.50;51.40
65179;DHT22;51849;47.476;8.084;2022-10-16T15:18:14;21.40;53.70
65179;DHT22;51849;47.476;8.084;2022-10-16T15:20:47;21.40;52.60
65179;DHT22;51849;47.476;8.084;2022-10-16T15:23:15;21.30;52.80
65179;DHT22;51849;47.476;8.084;2022-10-16T15:25:54;21.30;53.90
65179;DHT22;51849;47.476;8.084;2022-10-16T15:28:21;21.30;55.10
65179;DHT22;51849;47.476;8.084;2022-10-16T15:30:54;21.20;53.90
65179;DHT22;51849;47.476;8.084;2022-10-16T15:33:27;21.20;53.30
65179;DHT22;51849;47.476;8.084;2022-10-16T15:35:57;21.20;52.80
65179;DHT22;51849;47.476;8.084;2022-10-16T15:38:23;21.20;53.60
65179;DHT22;51849;47.476;8.084;2022-10-16T15:40:50;21.20;53.80
65179;DHT22;51849;47.476;8.084;2022-10-16T15:43:18;21.20;53.80
65179;DHT22;51849;47.476;8.084;2022-10-16T15:46:09;21.10;53.20
65179;DHT22;51849;47.476;8.084;2022-10-16T15:48:35;21.10;54.20
65179;DHT22;51849;47.476;8.084;2022-10-16T15:51:02;21.10;53.90
65179;DHT22;51849;47.476;8.084;2022-10-16T15:53:30;21.00;55.10
65179;DHT22;51849;47.476;8.084;2022-10-16T15:55:56;20.90;56.00
65179;DHT22;51849;47.476;8.084;2022-10-16T15:58:24;20.80;58.20
65179;DHT22;51849;47.476;8.084;2022-10-16T16:00:54;20.70;56.00
65179;DHT22;51849;47.476;8.084;2022-10-16T16:03:23;20.60;57.60
65179;DHT22;51849;47.476;8.084;2022-10-16T16:05:52;20.40;57.80
65179;DHT22;51849;47.476;8.084;2022-10-16T16:08:18;20.30;57.50
65179;DHT22;51849;47.476;8.084;2022-10-16T16:10:44;20.30;57.70
65179;DHT22;51849;47.476;8.084;2022-10-16T16:13:10;20.20;58.60
65179;DHT22;51849;47.476;8.084;2022-10-16T16:15:38;20.10;59.00
65179;DHT22;51849;47.476;8.084;2022-10-16T16:18:06;19.90;59.40
65179;DHT22;51849;47.476;8.084;2022-10-16T16:20:34;19.90;60.30
65179;DHT22;51849;47.476;8.084;2022-10-16T16:23:00;19.80;61.10
65179;DHT22;51849;47.476;8.084;2022-10-16T16:25:26;19.70;61.00
65179;DHT22;51849;47.476;8.084;2022-10-16T16:27:51;19.60;61.80
65179;DHT22;51849;47.476;8.084;2022-10-16T16:30:17;19.50;62.70
65179;DHT22;51849;47.476;8.084;2022-10-16T16:32:45;19.40;63.60
65179;DHT22;51849;47.476;8.084;2022-10-16T16:35:11;19.20;64.40
65179;DHT22;51849;47.476;8.084;2022-10-16T16:37:39;19.10;64.70
65179;DHT22;51849;47.476;8.084;2022-10-16T16:40:05;19.10;65.60
65179;DHT22;51849;47.476;8.084;2022-10-16T16:42:31;18.90;65.90
65179;DHT22;51849;47.476;8.084;2022-10-16T16:44:56;18.80;65.90
65179;DHT22;51849;47.476;8.084;2022-10-16T16:47:22;18.70;65.70
65179;DHT22;51849;47.476;8.084;2022-10-16T16:49:48;18.60;66.10
65179;DHT22;51849;47.476;8.084;2022-10-16T16:52:13;18.60;66.20
65179;DHT22;51849;47.476;8.084;2022-10-16T16:54:39;18.50;66.50
65179;DHT22;51849;47.476;8.084;2022-10-16T16:57:05;18.40;67.00
65179;DHT22;51849;47.476;8.084;2022-10-16T16:59:31;18.30;67.30
65179;DHT22;51849;47.476;8.084;2022-10-16T17:01:59;18.20;67.80
65179;DHT22;51849;47.476;8.084;2022-10-16T17:04:25;18.10;67.80
65179;DHT22;51849;47.476;8.084;2022-10-16T17:06:54;18.10;68.10
65179;DHT22;51849;47.476;8.084;2022-10-16T17:09:21;18.00;68.80
65179;DHT22;51849;47.476;8.084;2022-10-16T17:11:47;18.00;69.20
65179;DHT22;51849;47.476;8.084;2022-10-16T17:14:13;17.90;69.10
65179;DHT22;51849;47.476;8.084;2022-10-16T17:16:40;17.80;69.40
65179;DHT22;51849;47.476;8.084;2022-10-16T17:19:10;17.70;69.60
65179;DHT22;51849;47.476;8.084;2022-10-16T17:21:40;17.70;70.00
65179;DHT22;51849;47.476;8.084;2022-10-16T17:24:06;17.60;70.30
65179;DHT22;51849;47.476;8.084;2022-10-16T17:26:35;17.50;70.60
65179;DHT22;51849;47.476;8.084;2022-10-16T17:29:06;17.30;72.40